Time;durP1;ratioP1;P1;durP2;ratioP2;P2;SDS_P1;SDS_P2;PMS_P1;PMS_P2;Temp;Humidity;BMP_temperature;BMP_pressure;BME280_temperature;BME280_humidity;BME280_pressure;Samples;Min_cycle;Max_cycle;Signal;HPM_P1;HPM_P2
2022/08/14 00:00:44;;;;;;;41.60;21.13;;;21.90;74.30;;;;;;5085000;28;20021;-95
2022/08/14 00:03:30;;;;;;;35.58;19.85;;;21.90;74.30;;;;;;5082211;28;20098;-92
2022/08/14 00:05:59;;;;;;;36.28;19.27;;;21.80;74.10;;;;;;5086485;28;20074;-93
2022/08/14 00:08:25;;;;;;;30.15;18.95;;;21.80;74.10;;;;;;5080988;28;20020;-93
2022/08/14 00:10:52;;;;;;;30.38;19.38;;;21.80;74.40;;;;;;5100604;28;20024;-94
2022/08/14 00:13:22;;;;;;;30.27;18.10;;;21.80;74.30;;;;;;5086668;28;20025;-94
2022/08/14 00:15:49;;;;;;;35.53;19.58;;;21.70;74.30;;;;;;5085825;28;20470;-92
2022/08/14 00:18:19;;;;;;;25.63;19.05;;;21.70;74.00;;;;;;5084699;28;20400;-93
2022/08/14 00:20:45;;;;;;;34.20;19.95;;;21.70;74.90;;;;;;5081792;28;20063;-92
2022/08/14 00:23:13;;;;;;;33.33;19.67;;;21.70;74.20;;;;;;5070537;28;20025;-93
2022/08/14 00:25:40;;;;;;;29.48;18.70;;;21.60;74.20;;;;;;5073211;28;20020;-93
2022/08/14 00:28:10;;;;;;;35.08;18.65;;;21.60;74.50;;;;;;5094319;28;20253;-89
2022/08/14 00:31:01;;;;;;;31.58;18.77;;;21.60;74.30;;;;;;5095115;28;20401;-94
2022/08/14 00:33:37;;;;;;;37.60;20.48;;;21.60;74.30;;;;;;5090206;28;20082;-94
2022/08/14 00:36:05;;;;;;;39.15;20.58;;;21.50;74.30;;;;;;5125434;28;20035;-93
2022/08/14 00:38:35;;;;;;;38.13;20.88;;;21.50;74.60;;;;;;5088968;28;20017;-93
2022/08/14 00:41:05;;;;;;;29.48;20.33;;;21.50;74.70;;;;;;5090894;28;20060;-94
2022/08/14 00:43:33;;;;;;;33.97;19.23;;;21.40;74.90;;;;;;5093064;28;20025;-94
2022/08/14 00:46:06;;;;;;;35.90;18.65;;;21.30;73.80;;;;;;5062914;28;20093;-93
2022/08/14 00:48:36;;;;;;;33.60;18.77;;;21.30;75.10;;;;;;5095158;28;20088;-93
2022/08/14 00:51:05;;;;;;;32.00;18.80;;;21.30;74.70;;;;;;5093400;28;20054;-88
2022/08/14 00:53:31;;;;;;;31.88;18.65;;;21.30;74.80;;;;;;5094746;28;20039;-93
2022/08/14 00:55:57;;;;;;;30.25;18.65;;;21.30;75.00;;;;;;5093306;28;20042;-92
2022/08/14 00:58:29;;;;;;;32.97;19.25;;;21.30;75.10;;;;;;5095754;28;20046;-90
2022/08/14 01:01:03;;;;;;;31.58;18.60;;;21.20;75.20;;;;;;5098573;28;20056;-87
2022/08/14 01:03:36;;;;;;;30.02;18.65;;;21.20;75.10;;;;;;5097630;28;20028;-92
2022/08/14 01:06:07;;;;;;;28.52;17.40;;;21.20;75.30;;;;;;5086099;28;20020;-92
2022/08/14 01:08:37;;;;;;;30.52;19.65;;;21.20;74.50;;;;;;5084611;28;20032;-92
2022/08/14 01:11:16;;;;;;;42.28;19.45;;;21.10;75.20;;;;;;5074147;28;20021;-94
2022/08/14 01:13:44;;;;;;;36.38;19.88;;;21.10;75.20;;;;;;5072823;28;20021;-91
2022/08/14 01:16:37;;;;;;;29.00;17.63;;;21.10;75.50;;;;;;5074342;28;20037;-92
2022/08/14 01:21:51;;;;;;;30.88;18.33;;;21.00;75.60;;;;;;5077170;28;20036;-89
2022/08/14 01:24:20;;;;;;;35.80;19.60;;;20.90;75.60;;;;;;5059858;28;20212;-94
2022/08/14 01:26:47;;;;;;;31.23;19.70;;;20.90;75.90;;;;;;5054682;28;20110;-94
2022/08/14 01:29:14;;;;;;;34.80;18.77;;;20.90;76.10;;;;;;5047723;28;20025;-92
2022/08/14 01:31:48;;;;;;;32.08;16.88;;;20.90;76.00;;;;;;5034766;28;20051;-92
2022/08/14 01:34:15;;;;;;;35.03;21.00;;;20.90;76.00;;;;;;5079646;28;20040;-90
2022/08/14 01:36:42;;;;;;;33.88;19.55;;;20.90;76.10;;;;;;5063361;28;20033;-92
2022/08/14 01:39:11;;;;;;;35.38;19.77;;;20.80;76.00;;;;;;5070820;28;20040;-91
2022/08/14 01:41:37;;;;;;;26.67;17.23;;;20.80;75.40;;;;;;5078807;28;20062;-87
2022/08/14 01:44:09;;;;;;;29.23;16.43;;;20.80;74.80;;;;;;5138381;27;20013;-89
2022/08/14 01:46:38;;;;;;;28.05;18.02;;;20.80;74.30;;;;;;5104057;28;20036;-88
2022/08/14 01:49:10;;;;;;;32.58;16.65;;;20.80;75.10;;;;;;5096322;28;20017;-93
2022/08/14 01:51:38;;;;;;;28.02;17.58;;;20.80;75.30;;;;;;5086968;28;20205;-90
2022/08/14 01:54:11;;;;;;;22.30;15.48;;;20.80;75.20;;;;;;5083957;28;20126;-90
2022/08/14 01:56:38;;;;;;;24.42;15.63;;;20.80;74.50;;;;;;5081478;28;20166;-90
2022/08/14 01:59:05;;;;;;;26.92;16.92;;;20.80;74.70;;;;;;5082788;28;20149;-90
2022/08/14 02:01:32;;;;;;;24.38;16.10;;;20.80;74.30;;;;;;5083706;28;20052;-92
2022/08/14 02:03:58;;;;;;;27.63;16.75;;;20.80;74.40;;;;;;5091603;28;20016;-91
2022/08/14 02:06:25;;;;;;;26.08;15.35;;;20.80;74.60;;;;;;5087413;28;20059;-91
2022/08/14 02:08:53;;;;;;;23.67;14.60;;;20.80;74.70;;;;;;5080919;28;20119;-92
2022/08/14 02:11:22;;;;;;;26.52;15.02;;;20.80;73.70;;;;;;5091794;28;20054;-91
2022/08/14 02:14:03;;;;;;;24.40;14.55;;;20.80;73.40;;;;;;5086851;28;20031;-93
2022/08/14 02:16:40;;;;;;;21.52;15.25;;;20.90;72.90;;;;;;5086521;28;20107;-92
2022/08/14 02:19:14;;;;;;;28.88;15.38;;;20.90;73.50;;;;;;5091368;28;20021;-90
2022/08/14 02:21:42;;;;;;;24.60;15.65;;;20.90;73.40;;;;;;5075801;28;20028;-91
2022/08/14 02:24:09;;;;;;;20.10;13.32;;;20.90;73.90;;;;;;5054868;28;20048;-92
2022/08/14 02:26:38;;;;;;;20.83;13.30;;;20.90;72.50;;;;;;5048603;28;20087;-92
2022/08/14 02:29:08;;;;;;;24.20;14.13;;;21.00;72.10;;;;;;5043608;28;20017;-93
2022/08/14 02:31:38;;;;;;;20.13;12.63;;;21.10;72.10;;;;;;5048187;28;20040;-92
2022/08/14 02:34:17;;;;;;;16.83;12.05;;;21.10;71.80;;;;;;5051556;28;20103;-92
2022/08/14 02:36:44;;;;;;;26.08;17.00;;;21.10;71.50;;;;;;5066089;28;20449;-93
2022/08/14 02:39:16;;;;;;;20.98;13.90;;;21.20;73.20;;;;;;5054708;28;20040;-91
2022/08/14 02:41:43;;;;;;;15.32;12.10;;;21.10;72.90;;;;;;5055037;28;20095;-92
2022/08/14 02:44:11;;;;;;;16.20;11.60;;;21.10;72.40;;;;;;5039467;28;20031;-93
2022/08/14 02:46:42;;;;;;;18.33;11.85;;;21.10;71.90;;;;;;5074390;28;20041;-94
2022/08/14 02:49:09;;;;;;;17.80;11.50;;;21.10;71.70;;;;;;5068234;28;20025;-90
2022/08/14 02:51:36;;;;;;;16.95;12.52;;;21.20;71.60;;;;;;5061931;28;20021;-89
2022/08/14 02:54:02;;;;;;;20.45;12.35;;;21.30;71.20;;;;;;5092344;28;20457;-90
2022/08/14 02:56:28;;;;;;;17.73;12.13;;;21.40;70.80;;;;;;5075215;28;20033;-91
2022/08/14 02:58:56;;;;;;;19.10;13.02;;;21.50;70.70;;;;;;5067384;28;20140;-90
2022/08/14 03:01:23;;;;;;;16.83;13.38;;;21.50;70.50;;;;;;5064332;28;20426;-90
2022/08/14 03:03:50;;;;;;;17.65;12.57;;;21.60;70.30;;;;;;5078684;28;20028;-90
2022/08/14 03:06:24;;;;;;;19.70;12.93;;;21.70;70.30;;;;;;5077894;28;20039;-91
2022/08/14 03:08:52;;;;;;;17.27;13.23;;;21.70;70.00;;;;;;5065956;28;20078;-90
2022/08/14 03:11:19;;;;;;;17.40;12.00;;;21.70;70.00;;;;;;5080297;28;20162;-91
2022/08/14 03:13:46;;;;;;;;;;;21.80;70.00;;;;;;5076514;28;20031;-89
2022/08/14 03:16:16;;;;;;;27.40;15.02;;;21.80;69.70;;;;;;5081657;28;20346;-90
2022/08/14 03:18:44;;;;;;;20.92;13.05;;;21.80;69.60;;;;;;5081767;28;20100;-90
2022/08/14 03:21:15;;;;;;;20.13;12.52;;;21.90;69.50;;;;;;5078235;28;20089;-90
2022/08/14 03:23:45;;;;;;;18.05;13.73;;;22.00;69.70;;;;;;5088161;28;20043;-94
2022/08/14 03:26:14;;;;;;;20.58;14.27;;;22.00;69.30;;;;;;5098726;28;20040;-93
2022/08/14 03:28:48;;;;;;;19.52;13.70;;;22.10;69.20;;;;;;5095788;28;20025;-93
2022/08/14 03:31:20;;;;;;;27.05;14.52;;;22.20;69.20;;;;;;5107472;28;20039;-94
2022/08/14 03:33:47;;;;;;;18.17;13.68;;;22.30;68.60;;;;;;5073541;28;20086;-92
2022/08/14 03:36:16;;;;;;;20.70;13.40;;;22.30;68.40;;;;;;5088070;28;20497;-92
2022/08/14 03:38:44;;;;;;;18.48;12.57;;;22.40;68.40;;;;;;5129069;28;20031;-92
2022/08/14 03:41:24;;;;;;;22.00;13.63;;;22.40;68.30;;;;;;5080163;28;20033;-93
2022/08/14 03:44:02;;;;;;;21.48;13.48;;;22.50;68.10;;;;;;5070114;28;20472;-92
2022/08/14 03:46:37;;;;;;;22.58;13.27;;;22.50;67.80;;;;;;5077146;28;20084;-92
2022/08/14 03:49:04;;;;;;;15.60;13.18;;;22.60;67.60;;;;;;5078230;28;20025;-90
2022/08/14 03:51:31;;;;;;;19.50;12.75;;;22.60;67.90;;;;;;5079688;28;20103;-91
2022/08/14 03:54:00;;;;;;;26.25;15.13;;;22.70;67.40;;;;;;5083113;28;20071;-91
2022/08/14 03:56:28;;;;;;;18.88;13.35;;;22.70;67.30;;;;;;5079616;28;20121;-89
2022/08/14 03:58:57;;;;;;;18.20;14.15;;;22.70;66.90;;;;;;5085664;28;20021;-89
2022/08/14 04:01:25;;;;;;;21.45;12.55;;;22.70;66.80;;;;;;5096628;28;20032;-88
2022/08/14 04:03:53;;;;;;;19.17;12.93;;;22.60;66.80;;;;;;5099109;28;20031;-87
2022/08/14 04:06:20;;;;;;;16.95;12.60;;;22.60;67.00;;;;;;5098113;28;20020;-92
2022/08/14 04:08:50;;;;;;;14.10;12.48;;;22.60;67.20;;;;;;5088370;28;20021;-92
2022/08/14 04:11:17;;;;;;;17.35;11.93;;;22.60;67.40;;;;;;5087602;28;20073;-92
2022/08/14 04:13:43;;;;;;;16.50;12.18;;;22.70;67.40;;;;;;5129024;28;20023;-91
2022/08/14 04:16:21;;;;;;;20.42;13.85;;;22.80;66.90;;;;;;5092041;28;20029;-91
2022/08/14 04:18:51;;;;;;;27.90;13.43;;;22.90;66.60;;;;;;5078025;28;20052;-92
2022/08/14 04:21:17;;;;;;;20.45;13.30;;;22.90;66.60;;;;;;5070743;28;20032;-91
2022/08/14 04:23:49;;;;;;;23.13;14.80;;;23.00;66.60;;;;;;5085378;28;20016;-93
2022/08/14 04:26:20;;;;;;;21.52;14.52;;;23.00;66.50;;;;;;5091637;28;20029;-94
2022/08/14 04:28:48;;;;;;;25.23;14.70;;;23.10;66.50;;;;;;5128585;28;20031;-94
2022/08/14 04:31:17;;;;;;;25.35;14.48;;;23.20;66.40;;;;;;5102089;28;20057;-93
2022/08/14 04:33:43;;;;;;;21.45;15.82;;;23.20;66.40;;;;;;5083090;28;20023;-92
2022/08/14 04:36:09;;;;;;;18.42;15.20;;;23.40;66.70;;;;;;5091469;28;20095;-93
2022/08/14 04:44:08;;;;;;;21.08;14.82;;;23.60;66.10;;;;;;5077430;28;20078;-92
2022/08/14 04:46:34;;;;;;;29.15;16.65;;;23.70;65.90;;;;;;5078077;28;20016;-93
2022/08/14 04:49:02;;;;;;;25.98;15.57;;;23.90;66.60;;;;;;5079869;28;20142;-91
2022/08/14 04:51:31;;;;;;;19.95;14.45;;;24.30;64.80;;;;;;5105300;28;20025;-90
2022/08/14 04:54:00;;;;;;;19.90;13.35;;;24.80;62.80;;;;;;5114076;28;20125;-93
2022/08/14 04:56:30;;;;;;;18.05;13.77;;;25.50;61.30;;;;;;5087571;28;20093;-94
2022/08/14 04:58:59;;;;;;;21.83;14.68;;;26.10;59.60;;;;;;5088821;28;20068;-94
2022/08/14 05:01:26;;;;;;;17.45;13.02;;;26.90;58.30;;;;;;5085795;28;20041;-93
2022/08/14 05:03:54;;;;;;;20.98;13.82;;;27.50;56.70;;;;;;5081530;28;20073;-93
2022/08/14 05:06:21;;;;;;;21.50;12.80;;;28.30;55.50;;;;;;5082078;28;20024;-94
2022/08/14 05:08:49;;;;;;;20.15;13.57;;;29.10;54.20;;;;;;5089960;28;20039;-93
2022/08/14 05:11:17;;;;;;;;;;;30.00;52.40;;;;;;5108723;28;20031;-93
2022/08/14 05:13:43;;;;;;;22.85;12.75;;;30.70;52.90;;;;;;5087934;28;20379;-94
2022/08/14 05:16:11;;;;;;;18.85;11.02;;;31.10;49.30;;;;;;5065890;28;20037;-94
2022/08/14 05:18:39;;;;;;;17.77;11.93;;;31.50;48.00;;;;;;5066006;28;20572;-94
2022/08/14 05:21:08;;;;;;;18.55;12.52;;;32.00;47.60;;;;;;5030800;28;20045;-94
2022/08/14 05:23:41;;;;;;;16.73;11.80;;;32.30;46.30;;;;;;5055239;28;20044;-92
2022/08/14 05:26:13;;;;;;;19.98;11.73;;;32.60;45.90;;;;;;5048904;28;20090;-92
2022/08/14 05:28:44;;;;;;;23.77;11.68;;;32.70;45.60;;;;;;5083523;28;20040;-91
2022/08/14 05:31:12;;;;;;;24.60;12.80;;;33.30;45.80;;;;;;5092576;28;20024;-93
2022/08/14 05:33:39;;;;;;;18.75;12.52;;;33.80;44.60;;;;;;5080972;28;20048;-91
2022/08/14 05:36:10;;;;;;;14.68;9.45;;;34.00;43.60;;;;;;5074432;28;20017;-89
2022/08/14 05:38:41;;;;;;;18.13;10.05;;;34.00;42.70;;;;;;5093452;28;20118;-91
2022/08/14 05:41:11;;;;;;;19.30;10.90;;;33.70;43.10;;;;;;5087819;28;20036;-91
2022/08/14 05:43:39;;;;;;;18.63;10.07;;;33.60;43.50;;;;;;5088384;28;20031;-91
2022/08/14 05:46:06;;;;;;;18.98;10.45;;;33.70;43.30;;;;;;5082586;28;20035;-93
2022/08/14 05:48:32;;;;;;;17.75;10.05;;;33.90;43.00;;;;;;5081665;28;20089;-92
2022/08/14 05:50:58;;;;;;;16.93;9.70;;;34.40;43.00;;;;;;5079133;28;20048;-93
2022/08/14 05:53:26;;;;;;;19.97;9.97;;;35.10;41.90;;;;;;5079787;28;20111;-91
2022/08/14 05:55:54;;;;;;;21.55;9.32;;;36.70;41.60;;;;;;5074227;28;20277;-94
2022/08/14 05:58:21;;;;;;;19.67;10.35;;;37.20;40.20;;;;;;5081319;28;20021;-93
2022/08/14 06:00:48;;;;;;;17.75;10.05;;;38.20;38.80;;;;;;5073534;28;20025;-93
2022/08/14 06:03:18;;;;;;;19.77;9.55;;;38.80;38.00;;;;;;5099123;28;20061;-93
2022/08/14 06:05:46;;;;;;;13.82;9.50;;;39.30;37.40;;;;;;5080729;28;20025;-92
2022/08/14 06:08:21;;;;;;;16.95;9.38;;;40.10;36.90;;;;;;5078377;28;20063;-95
2022/08/14 06:10:47;;;;;;;17.42;8.70;;;;;;;;;;5076976;28;20021;-92
2022/08/14 06:13:14;;;;;;;14.80;8.63;;;;;;;;;;5112734;28;20024;-94
2022/08/14 06:15:40;;;;;;;17.55;9.13;;;;;;;;;;5105244;28;20040;-92
2022/08/14 06:18:06;;;;;;;;;;;;;;;;;;5076140;28;20032;-87
2022/08/14 06:20:33;;;;;;;20.50;9.60;;;;;;;;;;5061320;28;19908;-87
2022/08/14 06:22:59;;;;;;;;;;;;;;;;;;5080451;28;20060;-93
2022/08/14 06:25:26;;;;;;;15.90;8.23;;;41.60;34.60;;;;;;5072140;28;20250;-92
2022/08/14 06:27:52;;;;;;;12.90;7.75;;;42.50;33.60;;;;;;5049108;28;20039;-94
2022/08/14 06:30:33;;;;;;;11.23;7.28;;;42.50;33.50;;;;;;5051228;28;20009;-93
2022/08/14 06:32:59;;;;;;;16.35;7.28;;;;;;;;;;5070206;28;20032;-89
2022/08/14 06:35:25;;;;;;;;;;;43.50;33.20;;;;;;5073915;28;20052;-94
2022/08/14 06:37:54;;;;;;;13.27;7.75;;;43.60;33.80;;;;;;5064713;28;19892;-95
2022/08/14 06:40:28;;;;;;;13.00;6.47;;;43.70;32.10;;;;;;5082531;28;20029;-95
2022/08/14 06:43:03;;;;;;;15.48;6.75;;;44.00;31.80;;;;;;5040056;28;20100;-92
2022/08/14 06:45:31;;;;;;;14.33;5.83;;;43.60;31.50;;;;;;5060243;28;20089;-94
2022/08/14 06:48:17;;;;;;;8.60;6.72;;;43.70;31.70;;;;;;5056840;28;20058;-94
2022/08/14 06:50:46;;;;;;;11.05;6.45;;;44.30;31.20;;;;;;5062776;28;20101;-94
2022/08/14 06:53:13;;;;;;;10.85;7.43;;;44.30;30.90;;;;;;5081506;28;20021;-95
2022/08/14 06:55:41;;;;;;;7.93;6.30;;;44.60;30.90;;;;;;5088653;28;20033;-94
2022/08/14 06:58:14;;;;;;;7.43;5.85;;;44.60;30.50;;;;;;5084839;28;20426;-93
2022/08/14 07:06:19;;;;;;;9.63;5.32;;;44.90;30.20;;;;;;5081469;28;20108;-92
2022/08/14 07:08:45;;;;;;;8.73;4.53;;;45.00;30.10;;;;;;5075987;28;20062;-90
2022/08/14 07:11:12;;;;;;;7.30;3.47;;;45.20;30.00;;;;;;5085597;28;20051;-93
2022/08/14 07:13:39;;;;;;;8.68;3.75;;;;;;;;;;5091926;28;20012;-94
2022/08/14 07:16:05;;;;;;;11.02;4.70;;;;;;;;;;5080777;28;20036;-89
2022/08/14 07:18:32;;;;;;;10.23;4.50;;;;;;;;;;5080027;28;20058;-90
2022/08/14 07:20:58;;;;;;;10.27;5.18;;;;;;;;;;5092910;28;20061;-93
2022/08/14 07:23:25;;;;;;;9.35;5.47;;;45.50;29.80;;;;;;5092165;28;20036;-92
2022/08/14 07:25:55;;;;;;;8.75;5.70;;;;;;;;;;5087731;28;20089;-93
2022/08/14 07:28:35;;;;;;;11.30;5.03;;;46.20;29.70;;;;;;5092424;28;20094;-91
2022/08/14 07:31:02;;;;;;;11.15;6.00;;;;;;;;;;5076327;28;20027;-92
2022/08/14 07:33:32;;;;;;;10.05;5.38;;;46.80;29.30;;;;;;5081535;28;20025;-92
2022/08/14 07:36:01;;;;;;;9.13;5.25;;;;;;;;;;5072802;28;20037;-90
2022/08/14 07:38:27;;;;;;;9.43;5.20;;;;;;;;;;5071235;28;20389;-91
2022/08/14 07:40:54;;;;;;;8.63;4.35;;;;;;;;;;5077705;28;20919;-93
2022/08/14 07:43:21;;;;;;;7.65;3.95;;;47.10;28.60;;;;;;5082780;28;20029;-86
2022/08/14 07:45:47;;;;;;;10.35;4.10;;;46.50;29.10;;;;;;5078086;28;20024;-92
2022/08/14 07:48:13;;;;;;;9.80;4.00;;;46.70;28.70;;;;;;5080037;28;20024;-88
2022/08/14 07:50:39;;;;;;;4.70;3.53;;;46.60;28.40;;;;;;5078965;28;20042;-88
2022/08/14 07:53:05;;;;;;;8.70;4.15;;;46.50;28.50;;;;;;5074417;28;20033;-93
2022/08/14 07:55:32;;;;;;;8.48;4.10;;;47.00;28.50;;;;;;5059264;28;20021;-87
2022/08/14 07:57:58;;;;;;;6.18;3.67;;;47.30;28.40;;;;;;5060882;28;20013;-88
2022/08/14 08:00:25;;;;;;;6.45;3.15;;;47.50;28.60;;;;;;5059479;28;20017;-88
2022/08/14 08:02:53;;;;;;;6.47;3.45;;;47.90;27.80;;;;;;5074354;28;20027;-87
2022/08/14 08:05:20;;;;;;;4.82;3.00;;;;;;;;;;5070838;28;20428;-90
2022/08/14 08:07:47;;;;;;;8.93;3.45;;;;;;;;;;5075606;28;20039;-92
2022/08/14 08:10:30;;;;;;;4.80;2.70;;;;;;;;;;5058231;28;20375;-87
2022/08/14 08:12:57;;;;;;;5.15;3.42;;;;;;;;;;5069937;28;20104;-92
2022/08/14 08:15:34;;;;;;;5.70;3.78;;;;;;;;;;5070776;28;20024;-92
2022/08/14 08:18:03;;;;;;;8.63;3.40;;;;;;;;;;5084568;28;20020;-92
2022/08/14 08:20:30;;;;;;;7.90;3.60;;;;;;;;;;5082367;28;20025;-93
2022/08/14 08:22:58;;;;;;;6.28;4.03;;;;;;;;;;5081724;28;20419;-92
2022/08/14 08:25:31;;;;;;;8.02;4.40;;;;;;;;;;5084571;28;20514;-95
2022/08/14 08:28:06;;;;;;;8.13;5.22;;;48.30;27.80;;;;;;5071090;28;20107;-90
2022/08/14 08:30:33;;;;;;;9.00;4.00;;;45.10;29.00;;;;;;5075158;28;20044;-86
2022/08/14 08:33:01;;;;;;;8.50;5.00;;;45.50;28.90;;;;;;5054573;28;20056;-85
2022/08/14 08:35:33;;;;;;;6.63;4.53;;;45.20;28.70;;;;;;5056096;28;20157;-86
2022/08/14 08:38:06;;;;;;;9.38;5.38;;;44.80;29.40;;;;;;5067548;28;20486;-86
2022/08/14 08:40:36;;;;;;;11.27;4.40;;;45.40;29.20;;;;;;5089086;28;20116;-89
2022/08/14 08:43:07;;;;;;;10.15;5.60;;;46.10;28.80;;;;;;5068969;28;20111;-84
2022/08/14 08:45:35;;;;;;;7.60;4.38;;;46.70;28.50;;;;;;5074364;28;20023;-85
2022/08/14 08:48:02;;;;;;;6.57;4.38;;;47.10;28.30;;;;;;5073693;28;20020;-85
2022/08/14 08:50:38;;;;;;;8.13;5.50;;;47.30;28.20;;;;;;5072889;28;20066;-86
2022/08/14 08:53:09;;;;;;;7.22;4.78;;;47.20;28.30;;;;;;5073974;28;20569;-85
2022/08/14 08:55:42;;;;;;;9.88;5.57;;;47.50;28.10;;;;;;5073024;28;20100;-85
2022/08/14 08:58:18;;;;;;;7.60;4.95;;;47.60;27.90;;;;;;5069297;28;20032;-88
2022/08/14 09:00:50;;;;;;;8.38;4.18;;;47.70;28.00;;;;;;5073310;28;20020;-86
2022/08/14 09:03:19;;;;;;;6.63;4.10;;;47.70;27.70;;;;;;5073047;28;20044;-84
2022/08/14 09:05:56;;;;;;;10.00;4.30;;;47.80;27.60;;;;;;5067903;28;20020;-85
2022/08/14 09:08:25;;;;;;;6.97;4.25;;;47.60;27.50;;;;;;5064910;28;20513;-91
2022/08/14 09:10:52;;;;;;;8.68;4.28;;;46.80;27.60;;;;;;5077892;28;20020;-92
2022/08/14 09:13:19;;;;;;;3.72;3.33;;;;;;;;;;5078808;28;20056;-91
2022/08/14 09:15:47;;;;;;;6.30;4.03;;;45.70;28.00;;;;;;5094984;28;20140;-90
2022/08/14 09:18:15;;;;;;;9.40;4.50;;;43.70;28.90;;;;;;5077583;28;20031;-87
2022/08/14 09:20:44;;;;;;;7.35;4.43;;;44.20;29.10;;;;;;5076360;28;20108;-87
2022/08/14 09:23:13;;;;;;;8.68;3.90;;;45.20;28.80;;;;;;5078877;28;20107;-90
2022/08/14 09:25:43;;;;;;;5.85;3.72;;;45.70;27.90;;;;;;5085520;28;20028;-93
2022/08/14 09:28:10;;;;;;;6.93;3.78;;;43.80;28.40;;;;;;5095480;28;20106;-91
2022/08/14 09:30:40;;;;;;;5.60;3.65;;;41.80;29.20;;;;;;5079722;28;20047;-92
2022/08/14 09:33:30;;;;;;;5.68;4.30;;;40.80;30.00;;;;;;5075029;28;20067;-89
2022/08/14 09:36:15;;;;;;;7.90;4.72;;;41.40;30.00;;;;;;5076797;28;20028;-92
2022/08/14 09:38:52;;;;;;;4.43;3.38;;;40.90;30.10;;;;;;5078894;28;20025;-92
2022/08/14 09:41:39;;;;;;;8.60;4.22;;;40.50;30.40;;;;;;5064604;28;20040;-90
2022/08/14 09:44:27;;;;;;;4.95;3.35;;;40.00;30.60;;;;;;5075204;28;20035;-88
2022/08/14 09:46:56;;;;;;;8.70;4.53;;;39.30;31.30;;;;;;5065282;28;20031;-90
2022/08/14 09:49:34;;;;;;;10.80;4.82;;;38.90;31.50;;;;;;5081903;28;20024;-91
2022/08/14 09:52:09;;;;;;;5.78;4.30;;;38.80;32.10;;;;;;5074569;28;20028;-89
2022/08/14 09:54:46;;;;;;;5.50;4.30;;;40.20;31.30;;;;;;5078895;28;20062;-91
2022/08/14 09:57:29;;;;;;;9.35;4.90;;;40.60;30.40;;;;;;5086576;28;20112;-91
2022/08/14 09:59:56;;;;;;;7.85;4.53;;;40.40;30.60;;;;;;5087880;28;20024;-94
2022/08/14 10:02:30;;;;;;;5.70;4.93;;;40.40;30.70;;;;;;5086085;28;20037;-95
2022/08/14 10:05:09;;;;;;;6.68;4.30;;;40.90;30.10;;;;;;5081073;28;20029;-91
2022/08/14 10:07:50;;;;;;;7.10;4.32;;;40.90;30.10;;;;;;5076543;28;20090;-93
2022/08/14 10:10:37;;;;;;;8.68;4.30;;;41.40;30.10;;;;;;5085082;28;20035;-91
2022/08/14 10:13:05;;;;;;;5.47;4.47;;;40.80;30.00;;;;;;5084111;28;20020;-91
2022/08/14 10:15:36;;;;;;;9.25;5.82;;;40.40;30.00;;;;;;5091485;28;20051;-90
2022/08/14 10:18:14;;;;;;;5.25;4.05;;;40.40;30.80;;;;;;5095072;28;20032;-91
2022/08/14 10:20:43;;;;;;;6.53;4.05;;;;;;;;;;5065298;28;20027;-86
2022/08/14 10:23:14;;;;;;;7.43;4.72;;;41.70;29.60;;;;;;5077372;28;20033;-85
2022/08/14 10:25:45;;;;;;;5.72;4.90;;;41.40;30.20;;;;;;5074525;28;20053;-84
2022/08/14 10:28:14;;;;;;;5.22;4.72;;;40.10;30.30;;;;;;5075404;28;20490;-85
2022/08/14 10:30:42;;;;;;;10.23;4.90;;;39.20;31.10;;;;;;5079023;28;20040;-92
2022/08/14 10:33:08;;;;;;;8.63;5.18;;;38.30;31.90;;;;;;5076034;28;20069;-90
2022/08/14 10:35:43;;;;;;;7.15;5.88;;;37.60;32.80;;;;;;5077691;28;20583;-87
2022/08/14 10:38:09;;;;;;;9.13;5.60;;;37.00;33.60;;;;;;5076352;28;20075;-88
2022/08/14 10:40:37;;;;;;;9.52;5.82;;;36.60;34.70;;;;;;5075829;28;20085;-90
2022/08/14 10:43:03;;;;;;;9.05;5.55;;;36.30;34.40;;;;;;5077179;28;20123;-86
2022/08/14 10:45:33;;;;;;;6.38;5.30;;;35.70;34.60;;;;;;5076765;28;20032;-89
2022/08/14 10:48:02;;;;;;;9.07;5.35;;;35.20;35.20;;;;;;5076181;28;20107;-87
2022/08/14 10:50:36;;;;;;;11.38;5.75;;;34.50;35.90;;;;;;5068285;28;20029;-89
2022/08/14 10:53:04;;;;;;;8.35;6.05;;;34.00;36.40;;;;;;5072809;28;20021;-86
2022/08/14 10:55:38;;;;;;;10.25;6.20;;;33.60;37.40;;;;;;5072788;28;20024;-88
2022/08/14 10:58:09;;;;;;;8.25;6.10;;;33.30;37.80;;;;;;5074928;28;20048;-87
2022/08/14 11:00:35;;;;;;;9.13;5.82;;;33.10;37.80;;;;;;5063453;28;20174;-86
2022/08/14 11:03:12;;;;;;;11.85;7.93;;;32.90;38.50;;;;;;5076382;28;20120;-88
2022/08/14 11:05:41;;;;;;;;;;;32.80;38.60;;;;;;5083258;28;20020;-92
2022/08/14 11:08:09;;;;;;;10.48;5.82;;;32.70;38.00;;;;;;5076519;28;19904;-88
2022/08/14 11:10:41;;;;;;;7.10;6.45;;;32.10;39.00;;;;;;5085828;28;20013;-89
2022/08/14 11:13:08;;;;;;;8.52;6.18;;;31.70;39.70;;;;;;5086807;28;20032;-90
2022/08/14 11:15:35;;;;;;;8.48;5.90;;;31.60;40.20;;;;;;5076476;28;20038;-87
2022/08/14 11:18:01;;;;;;;6.82;6.13;;;31.80;39.90;;;;;;5075376;28;20493;-88
2022/08/14 11:20:29;;;;;;;9.45;6.00;;;31.90;39.80;;;;;;5073644;28;20390;-86
2022/08/14 11:22:59;;;;;;;9.52;6.30;;;32.10;40.00;;;;;;5074461;28;20048;-92
2022/08/14 11:25:30;;;;;;;9.05;5.97;;;32.20;39.50;;;;;;5082183;28;20057;-87
2022/08/14 11:27:57;;;;;;;7.85;6.53;;;32.10;39.20;;;;;;5082491;28;20040;-88
2022/08/14 11:30:26;;;;;;;7.07;6.30;;;31.60;40.70;;;;;;5075016;28;20024;-88
2022/08/14 11:32:55;;;;;;;8.68;6.40;;;31.50;40.30;;;;;;5075635;28;20016;-84
2022/08/14 11:35:25;;;;;;;13.15;6.05;;;31.60;40.40;;;;;;5074989;28;20056;-88
2022/08/14 11:38:02;;;;;;;12.38;7.20;;;31.70;40.20;;;;;;5068695;28;20358;-84
2022/08/14 11:40:36;;;;;;;10.05;6.55;;;31.80;40.30;;;;;;5071005;28;20024;-83
2022/08/14 11:43:04;;;;;;;7.72;6.13;;;31.80;40.70;;;;;;5061482;28;20036;-83
2022/08/14 11:45:33;;;;;;;10.63;6.40;;;31.80;40.50;;;;;;5072607;28;20056;-84
2022/08/14 11:48:01;;;;;;;7.95;5.95;;;31.80;40.40;;;;;;5073598;28;20042;-83
2022/08/14 11:50:33;;;;;;;10.18;6.15;;;31.80;40.60;;;;;;5061446;28;20019;-84
2022/08/14 11:53:01;;;;;;;7.28;5.82;;;31.80;40.80;;;;;;5068035;28;20035;-83
2022/08/14 11:55:37;;;;;;;12.73;6.43;;;31.70;40.80;;;;;;5064410;28;20024;-85
2022/08/14 11:58:05;;;;;;;;;;;31.60;40.70;;;;;;5064143;28;20024;-87
2022/08/14 12:00:32;;;;;;;7.43;6.72;;;31.40;40.60;;;;;;5066416;28;19991;-84
2022/08/14 12:02:59;;;;;;;;;;;31.20;41.40;;;;;;5064102;28;20024;-83
2022/08/14 12:05:32;;;;;;;;;;;31.10;41.00;;;;;;5071544;28;19909;-89
2022/08/14 12:07:59;;;;;;;12.40;7.30;;;30.90;41.20;;;;;;5079232;28;19908;-89
2022/08/14 12:10:26;;;;;;;11.50;6.15;;;30.80;42.00;;;;;;5078987;28;20020;-88
2022/08/14 12:12:55;;;;;;;12.40;7.85;;;30.60;41.90;;;;;;5074039;28;20021;-85
2022/08/14 12:15:34;;;;;;;11.27;6.93;;;30.40;42.30;;;;;;5070861;28;20025;-88
2022/08/14 12:18:01;;;;;;;10.45;7.30;;;30.50;42.40;;;;;;5067672;28;20032;-88
2022/08/14 12:20:43;;;;;;;9.60;7.93;;;30.60;42.80;;;;;;5075574;28;20020;-87
2022/08/14 12:23:24;;;;;;;8.70;7.68;;;30.60;42.60;;;;;;5070618;28;20068;-87
2022/08/14 12:26:01;;;;;;;7.78;6.53;;;30.70;42.50;;;;;;5066870;28;20382;-88
2022/08/14 12:28:27;;;;;;;;;;;30.50;42.40;;;;;;5076109;28;20053;-88
2022/08/14 12:30:53;;;;;;;10.38;7.35;;;30.30;42.20;;;;;;5062926;28;20374;-90
2022/08/14 12:33:25;;;;;;;7.28;6.65;;;30.40;43.30;;;;;;5062306;28;20032;-82
2022/08/14 12:35:55;;;;;;;10.85;6.70;;;30.60;42.50;;;;;;5062861;28;20024;-85
2022/08/14 12:38:36;;;;;;;7.38;6.40;;;30.70;42.70;;;;;;5066841;28;20035;-89
2022/08/14 12:41:08;;;;;;;7.60;6.63;;;30.80;42.10;;;;;;5069347;28;20088;-89
2022/08/14 12:43:55;;;;;;;10.20;6.68;;;31.00;41.80;;;;;;5070463;28;20112;-88
2022/08/14 12:46:32;;;;;;;8.95;6.80;;;31.20;41.30;;;;;;5078998;28;20501;-90
2022/08/14 12:49:21;;;;;;;7.35;6.50;;;31.20;41.20;;;;;;5078639;28;20023;-88
2022/08/14 12:52:01;;;;;;;6.88;6.18;;;31.20;41.30;;;;;;5065850;28;20442;-90
2022/08/14 12:54:28;;;;;;;10.25;6.20;;;31.20;41.20;;;;;;5072925;28;20078;-87
2022/08/14 12:57:26;;;;;;;;;;;31.00;41.80;;;;;;5067033;28;20036;-88
2022/08/14 12:59:53;;;;;;;8.73;7.68;;;31.00;41.40;;;;;;5046059;28;20312;-84
2022/08/14 13:02:23;;;;;;;9.45;7.93;;;30.90;42.00;;;;;;5057399;28;20036;-86
2022/08/14 13:04:49;;;;;;;11.00;7.32;;;31.00;42.30;;;;;;5065956;28;20482;-90
2022/08/14 13:07:15;;;;;;;7.60;5.93;;;31.10;42.00;;;;;;5074668;28;20051;-88
2022/08/14 13:09:41;;;;;;;11.68;6.80;;;31.10;42.00;;;;;;5076811;28;20126;-91
2022/08/14 13:12:08;;;;;;;8.90;6.55;;;31.10;42.00;;;;;;5073621;28;20021;-90
2022/08/14 13:14:34;;;;;;;;;;;31.00;41.80;;;;;;5071890;28;20085;-90
2022/08/14 13:17:03;;;;;;;12.87;7.33;;;30.90;41.70;;;;;;5072565;28;19904;-86